createdAt,value
2024-04-30T00:00:06.715Z,11.88
2024-04-30T00:16:45.324Z,11.57
2024-04-30T00:22:51.030Z,11.40
2024-04-30T00:26:04.019Z,11.34
2024-04-30T00:29:17.160Z,11.28
2024-04-30T00:32:37.074Z,11.23
2024-04-30T00:35:51.317Z,11.18
2024-04-30T00:39:22.272Z,11.11
2024-04-30T00:46:12.467Z,10.95
2024-04-30T01:05:48.225Z,10.62
2024-04-30T01:14:56.067Z,10.50
2024-04-30T01:18:10.441Z,10.45
2024-04-30T01:21:26.660Z,10.42
2024-04-30T01:24:38.870Z,10.38
2024-04-30T01:33:45.664Z,10.25
2024-04-30T01:37:01.538Z,10.20
2024-04-30T01:40:15.620Z,10.15
2024-04-30T01:43:30.650Z,10.10
2024-04-30T01:46:48.299Z,10.07
2024-04-30T01:50:01.270Z,10.05
2024-04-30T01:59:31.213Z,9.93
2024-04-30T02:02:43.814Z,9.86
2024-04-30T02:05:57.917Z,9.82
2024-04-30T02:09:15.642Z,9.78
2024-04-30T02:12:28.550Z,9.73
2024-04-30T02:15:42.911Z,9.69
2024-04-30T02:25:14.122Z,9.54
2024-04-30T02:28:27.170Z,9.49
2024-04-30T02:31:38.812Z,9.43
2024-04-30T02:34:51.869Z,9.38
2024-04-30T02:38:05.168Z,9.33
2024-04-30T02:41:18.919Z,9.27
2024-04-30T02:44:34.862Z,9.23
2024-04-30T02:47:49.049Z,9.21
2024-04-30T02:51:01.438Z,9.16
2024-04-30T02:54:15.718Z,9.10
2024-04-30T02:57:29.152Z,9.06
2024-04-30T03:00:43.986Z,9.03
2024-04-30T03:04:01.229Z,9.00
2024-04-30T03:07:13.976Z,8.96
2024-04-30T03:23:29.179Z,8.77
2024-04-30T03:26:45.003Z,8.75
2024-04-30T03:42:35.640Z,8.82
2024-04-30T03:45:43.802Z,8.87
2024-04-30T03:49:01.176Z,8.93
2024-04-30T03:52:13.911Z,8.99
2024-04-30T04:04:20.592Z,9.27
2024-04-30T04:07:31.450Z,9.33
2024-04-30T04:10:27.726Z,9.43
2024-04-30T04:13:26.075Z,9.52
2024-04-30T04:16:17.385Z,9.64
2024-04-30T04:28:09.198Z,10.18
2024-04-30T04:31:15.829Z,10.33
2024-04-30T04:34:36.457Z,10.52
2024-04-30T04:40:14.141Z,10.90
2024-04-30T04:43:36.865Z,11.15
2024-04-30T04:46:45.808Z,11.39
2024-04-30T04:49:58.698Z,11.63
2024-04-30T04:53:12.472Z,11.86
2024-04-30T04:56:25.234Z,12.12
2024-04-30T04:59:37.920Z,12.39
2024-04-30T05:05:32.938Z,12.95
2024-04-30T05:08:45.225Z,13.22
2024-04-30T05:18:38.961Z,14.40
2024-04-30T05:21:51.175Z,14.75
2024-04-30T05:25:02.852Z,15.14
2024-04-30T05:28:12.608Z,15.49
2024-04-30T05:34:25.287Z,16.33
2024-04-30T05:37:45.612Z,16.74
2024-04-30T05:40:55.916Z,17.18
2024-04-30T05:47:12.968Z,17.70
2024-04-30T05:52:54.098Z,18.20
2024-04-30T05:58:27.144Z,18.76
2024-04-30T06:04:09.792Z,19.30
2024-04-30T06:07:13.519Z,19.57
2024-04-30T06:10:27.240Z,19.83
2024-04-30T06:13:33.868Z,20.02
2024-04-30T06:19:27.951Z,20.27
2024-04-30T06:22:48.521Z,20.46
2024-04-30T06:25:50.393Z,20.67
2024-04-30T06:31:27.574Z,21.06
2024-04-30T06:37:27.953Z,21.49
2024-04-30T06:40:33.605Z,21.67
2024-04-30T06:43:54.466Z,21.79
2024-04-30T06:52:49.785Z,22.05
